createdAt,value
2017-09-06T00:00:35.809Z,0
2017-09-06T00:01:46.343Z,0
2017-09-06T00:02:56.618Z,0
2017-09-06T00:04:06.903Z,0
2017-09-06T00:05:17.184Z,0
2017-09-06T00:06:27.460Z,0
2017-09-06T00:07:37.729Z,0
2017-09-06T00:08:48.013Z,0
2017-09-06T00:09:58.296Z,0
2017-09-06T00:11:08.563Z,0
2017-09-06T00:12:18.520Z,0
2017-09-06T00:13:29.049Z,0
2017-09-06T00:14:39.322Z,0
2017-09-06T00:15:49.594Z,0
2017-09-06T00:16:59.566Z,0
2017-09-06T00:18:09.552Z,0
2017-09-06T00:19:19.767Z,0
2017-09-06T00:20:29.712Z,0
2017-09-06T00:21:39.983Z,0
2017-09-06T00:22:49.945Z,0
2017-09-06T00:24:00.235Z,0
2017-09-06T00:25:10.766Z,0
2017-09-06T00:26:21.046Z,0
2017-09-06T00:27:31.320Z,0
2017-09-06T00:28:41.290Z,0
2017-09-06T00:29:51.557Z,0
2017-09-06T00:31:02.077Z,0
2017-09-06T00:32:12.381Z,0
2017-09-06T00:33:22.655Z,0
2017-09-06T00:34:32.939Z,0
2017-09-06T00:35:43.221Z,0
2017-09-06T00:36:53.775Z,0
2017-09-06T00:38:03.740Z,0
2017-09-06T00:39:13.708Z,0
2017-09-06T00:40:24.008Z,0
2017-09-06T00:41:33.654Z,0
2017-09-06T00:42:44.183Z,0
2017-09-06T00:43:53.497Z,0
2017-09-06T00:45:03.452Z,0
2017-09-06T00:46:13.420Z,0
2017-09-06T00:47:23.692Z,0
2017-09-06T00:48:33.967Z,0
2017-09-06T00:49:43.298Z,0
2017-09-06T00:50:53.573Z,0
2017-09-06T00:52:03.533Z,0
2017-09-06T00:53:13.516Z,0
2017-09-06T00:54:23.795Z,0
2017-09-06T00:55:34.079Z,0
2017-09-06T00:56:44.340Z,0
2017-09-06T00:57:54.620Z,0
2017-09-06T00:59:04.266Z,0
2017-09-06T01:00:14.834Z,0
2017-09-06T01:01:25.110Z,0
2017-09-06T01:02:35.400Z,0
2017-09-06T01:03:45.702Z,0
2017-09-06T01:04:55.965Z,0
2017-09-06T01:06:06.232Z,0
2017-09-06T01:07:16.520Z,0
2017-09-06T01:08:26.164Z,0
2017-09-06T01:09:36.438Z,0
2017-09-06T01:10:46.717Z,0
2017-09-06T01:11:57.232Z,0
2017-09-06T01:13:06.881Z,0
2017-09-06T01:14:17.160Z,0
2017-09-06T01:15:27.425Z,0
2017-09-06T01:16:37.701Z,0
2017-09-06T01:17:47.962Z,0
2017-09-06T01:18:57.940Z,0
2017-09-06T01:20:07.912Z,0
2017-09-06T01:21:17.892Z,0
2017-09-06T01:22:28.178Z,0
2017-09-06T01:23:38.772Z,0
2017-09-06T01:24:49.048Z,0
2017-09-06T01:25:59.315Z,0
2017-09-06T01:27:09.577Z,0
2017-09-06T01:28:19.867Z,0
2017-09-06T01:29:30.121Z,0
2017-09-06T01:30:40.396Z,0
2017-09-06T01:31:50.681Z,0
2017-09-06T01:33:00.973Z,0
2017-09-06T01:34:11.256Z,0
2017-09-06T01:35:21.507Z,0
2017-09-06T01:36:31.788Z,0
2017-09-06T01:37:41.749Z,0
2017-09-06T01:38:52.038Z,0
2017-09-06T01:40:02.001Z,0
2017-09-06T01:41:12.574Z,0
2017-09-06T01:42:22.855Z,0
2017-09-06T01:43:33.132Z,0
2017-09-06T01:44:43.090Z,0
2017-09-06T01:45:53.361Z,0
2017-09-06T01:47:03.942Z,0
2017-09-06T01:48:13.906Z,0
2017-09-06T01:49:23.870Z,0
2017-09-06T01:50:34.152Z,0
2017-09-06T01:51:44.400Z,0
2017-09-06T01:52:54.601Z,0
2017-09-06T01:54:04.554Z,0
2017-09-06T01:55:14.532Z,0
2017-09-06T01:56:24.500Z,0
2017-09-06T01:57:34.776Z,0
2017-09-06T01:58:45.031Z,0
2017-09-06T01:59:55.322Z,0
2017-09-06T02:01:05.268Z,0
2017-09-06T02:02:15.548Z,0
2017-09-06T02:03:25.828Z,0
2017-09-06T02:04:36.394Z,0
2017-09-06T02:05:46.666Z,0
2017-09-06T02:06:56.946Z,0
2017-09-06T02:08:07.226Z,0
2017-09-06T02:09:17.326Z,0
2017-09-06T02:10:27.846Z,0
2017-09-06T02:11:38.127Z,0
2017-09-06T02:12:48.422Z,0
2017-09-06T02:13:58.700Z,0
2017-09-06T02:15:08.353Z,0
2017-09-06T02:16:18.889Z,0
2017-09-06T02:17:28.855Z,0
2017-09-06T02:18:38.806Z,0
2017-09-06T02:19:49.091Z,0
2017-09-06T02:20:59.043Z,0
2017-09-06T02:22:09.622Z,0
2017-09-06T02:23:19.887Z,0
2017-09-06T02:24:30.148Z,0
2017-09-06T02:25:40.097Z,0
2017-09-06T02:26:50.380Z,0
2017-09-06T02:28:00.963Z,0
2017-09-06T02:29:11.221Z,0
2017-09-06T02:30:21.190Z,0
2017-09-06T02:31:31.466Z,0
2017-09-06T02:32:41.734Z,0
2017-09-06T02:33:52.264Z,0
2017-09-06T02:35:02.220Z,0
2017-09-06T02:36:12.506Z,0
2017-09-06T02:37:22.484Z,0
2017-09-06T02:38:32.764Z,0
2017-09-06T02:39:43.019Z,0
2017-09-06T02:40:52.996Z,0
2017-09-06T02:42:03.272Z,0
2017-09-06T02:43:13.242Z,0
2017-09-06T02:44:23.528Z,0
2017-09-06T02:45:34.097Z,0
2017-09-06T02:46:44.371Z,0
2017-09-06T02:47:54.022Z,0
2017-09-06T02:49:04.293Z,0
2017-09-06T02:50:14.593Z,0
2017-09-06T02:51:25.173Z,0
2017-09-06T02:52:35.448Z,0
2017-09-06T02:53:45.449Z,0
2017-09-06T02:54:55.728Z,0
2017-09-06T02:56:05.998Z,0
2017-09-06T02:57:16.238Z,0
2017-09-06T02:58:26.207Z,0
2017-09-06T02:59:36.160Z,0
2017-09-06T03:00:45.808Z,0
2017-09-06T03:01:55.762Z,0
2017-09-06T03:03:06.040Z,0
2017-09-06T03:04:16.315Z,0
2017-09-06T03:05:26.266Z,0
2017-09-06T03:06:36.543Z,0
2017-09-06T03:07:46.810Z,0
2017-09-06T03:08:57.076Z,0
2017-09-06T03:10:07.379Z,0
2017-09-06T03:11:17.656Z,0
2017-09-06T03:12:27.919Z,0
2017-09-06T03:13:38.196Z,0
2017-09-06T03:14:48.142Z,0
2017-09-06T03:15:58.097Z,0
2017-09-06T03:17:08.355Z,0
2017-09-06T03:18:18.630Z,0
2017-09-06T03:19:28.907Z,0
2017-09-06T03:20:38.785Z,0
2017-09-06T03:21:49.069Z,0
2017-09-06T03:22:59.345Z,0
2017-09-06T03:24:09.312Z,0
2017-09-06T03:25:18.636Z,0
2017-09-06T03:26:29.213Z,0
2017-09-06T03:27:39.485Z,0
2017-09-06T03:28:49.763Z,0
2017-09-06T03:30:00.028Z,0
2017-09-06T03:31:09.993Z,0
2017-09-06T03:32:20.564Z,0
2017-09-06T03:33:30.525Z,0
2017-09-06T03:34:40.797Z,0
2017-09-06T03:35:50.747Z,0
2017-09-06T03:37:00.386Z,0
2017-09-06T03:38:10.600Z,0
2017-09-06T03:39:20.867Z,0
2017-09-06T03:40:30.860Z,0
2017-09-06T03:41:40.841Z,0
2017-09-06T03:42:51.131Z,0
2017-09-06T03:44:01.702Z,0
2017-09-06T03:45:11.989Z,0
2017-09-06T03:46:22.242Z,0
2017-09-06T03:47:32.197Z,0
2017-09-06T03:48:42.172Z,0
2017-09-06T03:49:52.759Z,0
2017-09-06T03:51:03.052Z,0
2017-09-06T03:52:13.010Z,0
2017-09-06T03:53:23.290Z,0
2017-09-06T03:54:33.558Z,0
2017-09-06T03:55:44.080Z,0
2017-09-06T03:56:54.341Z,0
2017-09-06T03:58:04.620Z,0
2017-09-06T03:59:14.584Z,0
2017-09-06T04:00:24.550Z,0
2017-09-06T04:01:34.799Z,0
2017-09-06T04:02:45.079Z,0
2017-09-06T04:03:55.024Z,0
2017-09-06T04:05:05.294Z,0
2017-09-06T04:06:15.570Z,0
2017-09-06T04:07:25.826Z,0
2017-09-06T04:08:36.126Z,0
2017-09-06T04:09:46.087Z,0
2017-09-06T04:10:56.358Z,0
2017-09-06T04:12:06.302Z,0
2017-09-06T04:13:16.892Z,0
2017-09-06T04:14:26.851Z,0
2017-09-06T04:15:37.131Z,0
2017-09-06T04:16:47.398Z,0
2017-09-06T04:17:57.045Z,0
2017-09-06T04:19:07.637Z,0
2017-09-06T04:20:17.910Z,0
2017-09-06T04:21:28.187Z,0
2017-09-06T04:22:38.478Z,0
2017-09-06T04:23:48.454Z,0
2017-09-06T04:24:58.992Z,0
2017-09-06T04:26:09.261Z,0
2017-09-06T04:27:19.220Z,0
2017-09-06T04:28:29.180Z,0
2017-09-06T04:29:39.439Z,0
2017-09-06T04:30:50.012Z,0
2017-09-06T04:31:59.967Z,0
2017-09-06T04:33:10.221Z,0
2017-09-06T04:34:20.508Z,0
2017-09-06T04:35:30.796Z,0
2017-09-06T04:36:41.377Z,0
2017-09-06T04:37:51.641Z,0
2017-09-06T04:39:01.911Z,5
2017-09-06T04:40:11.874Z,5
2017-09-06T04:41:22.161Z,5
2017-09-06T04:42:32.421Z,5
2017-09-06T04:43:42.701Z,5
2017-09-06T04:44:53.187Z,5
2017-09-06T04:46:03.477Z,5
2017-09-06T04:47:13.421Z,10
2017-09-06T04:48:23.934Z,10
2017-09-06T04:49:34.226Z,10
2017-09-06T04:50:44.509Z,10
2017-09-06T04:51:54.790Z,15
2017-09-06T04:53:04.756Z,15
2017-09-06T04:54:15.280Z,15
2017-09-06T04:55:25.569Z,20
2017-09-06T04:56:35.532Z,20
2017-09-06T04:57:45.797Z,25
2017-09-06T04:58:55.749Z,30
2017-09-06T05:00:06.027Z,35
2017-09-06T05:01:16.300Z,40
2017-09-06T05:02:25.945Z,45
2017-09-06T05:03:36.224Z,50
2017-09-06T05:04:46.501Z,55
2017-09-06T05:05:57.033Z,60
2017-09-06T05:07:07.316Z,65
2017-09-06T05:08:17.283Z,70
2017-09-06T05:09:27.576Z,75
2017-09-06T05:10:37.864Z,80
2017-09-06T05:11:48.455Z,85
2017-09-06T05:12:58.728Z,90
2017-09-06T05:14:09.021Z,100
2017-09-06T05:15:18.982Z,105
2017-09-06T05:16:28.628Z,110
2017-09-06T05:17:38.885Z,115
2017-09-06T05:18:49.163Z,120
2017-09-06T05:19:59.431Z,125
2017-09-06T05:21:09.387Z,130
2017-09-06T05:22:19.341Z,130
2017-09-06T05:23:29.557Z,130
2017-09-06T05:24:39.816Z,130
2017-09-06T05:25:49.767Z,125
2017-09-06T05:27:00.045Z,125
2017-09-06T05:28:10.320Z,120
2017-09-06T05:29:20.891Z,120
2017-09-06T05:30:31.171Z,115
2017-09-06T05:31:41.124Z,115
2017-09-06T05:32:51.394Z,120
2017-09-06T05:34:01.769Z,120
2017-09-06T05:35:12.350Z,120
2017-09-06T05:36:22.338Z,120
2017-09-06T05:37:32.611Z,115
2017-09-06T05:38:42.614Z,115
2017-09-06T05:39:52.573Z,115
2017-09-06T05:41:02.824Z,115
2017-09-06T05:42:12.481Z,115
2017-09-06T05:43:22.762Z,115
2017-09-06T05:44:33.077Z,115
2017-09-06T05:45:43.374Z,120
2017-09-06T05:46:53.641Z,120
2017-09-06T05:48:03.952Z,120
2017-09-06T05:49:14.269Z,115
2017-09-06T05:50:24.551Z,110
2017-09-06T05:51:34.866Z,110
2017-09-06T05:52:45.440Z,105
2017-09-06T05:53:55.730Z,110
2017-09-06T05:55:06.251Z,115
2017-09-06T05:56:16.562Z,115
2017-09-06T05:57:26.840Z,120
2017-09-06T05:58:37.137Z,120
2017-09-06T05:59:47.416Z,125
2017-09-06T06:00:57.396Z,125
2017-09-06T06:02:07.363Z,125
2017-09-06T06:03:17.658Z,125
2017-09-06T06:04:28.227Z,125
2017-09-06T06:05:38.531Z,125
2017-09-06T06:06:48.499Z,125
2017-09-06T06:07:58.801Z,125
2017-09-06T06:09:09.081Z,125
2017-09-06T06:10:19.641Z,130
2017-09-06T06:11:29.932Z,130
2017-09-06T06:12:39.904Z,130
2017-09-06T06:13:50.194Z,130
2017-09-06T06:15:00.492Z,125
2017-09-06T06:16:10.986Z,125
2017-09-06T06:17:20.971Z,130
2017-09-06T06:18:31.251Z,135
2017-09-06T06:19:41.543Z,140
2017-09-06T06:20:51.855Z,145
2017-09-06T06:22:02.134Z,145
2017-09-06T06:23:12.432Z,150
2017-09-06T06:24:22.709Z,155
2017-09-06T06:25:33.011Z,160
2017-09-06T06:26:43.310Z,165
2017-09-06T06:27:53.573Z,165
2017-09-06T06:29:03.538Z,165
2017-09-06T06:30:13.895Z,160
2017-09-06T06:31:24.187Z,165
2017-09-06T06:32:34.200Z,175
2017-09-06T06:33:44.143Z,180
2017-09-06T06:34:54.110Z,185
2017-09-06T06:36:04.413Z,190
2017-09-06T06:37:14.382Z,195
2017-09-06T06:38:24.677Z,200
2017-09-06T06:39:35.100Z,210
2017-09-06T06:40:45.101Z,220
2017-09-06T06:41:55.744Z,235
2017-09-06T06:43:05.987Z,240
2017-09-06T06:44:16.259Z,235
2017-09-06T06:45:26.863Z,215
2017-09-06T06:46:37.158Z,190
2017-09-06T06:47:47.432Z,190
2017-09-06T06:48:57.392Z,215
2017-09-06T06:50:07.673Z,240
2017-09-06T06:51:18.259Z,270
2017-09-06T06:52:28.221Z,290
2017-09-06T06:53:38.185Z,305
2017-09-06T06:54:48.478Z,315
2017-09-06T06:55:58.474Z,330
2017-09-06T06:57:08.687Z,340
2017-09-06T06:58:18.629Z,335
2017-09-06T06:59:28.852Z,335
2017-09-06T07:00:39.152Z,335
2017-09-06T07:01:49.417Z,310
2017-09-06T07:02:59.951Z,300
2017-09-06T07:04:10.266Z,300
2017-09-06T07:05:20.558Z,295
2017-09-06T07:06:30.518Z,285
2017-09-06T07:07:40.817Z,275
2017-09-06T07:08:51.416Z,275
2017-09-06T07:10:01.758Z,280
2017-09-06T07:11:11.970Z,305
2017-09-06T07:12:21.971Z,335
2017-09-06T07:13:32.273Z,350
2017-09-06T07:14:42.601Z,360
2017-09-06T07:15:52.908Z,355
2017-09-06T07:17:03.213Z,360
2017-09-06T07:18:13.209Z,365
2017-09-06T07:19:23.185Z,370
2017-09-06T07:20:33.413Z,370
2017-09-06T07:21:43.401Z,375
2017-09-06T07:22:53.703Z,385
2017-09-06T07:24:03.995Z,395
2017-09-06T07:25:13.960Z,395
2017-09-06T07:26:24.587Z,390
2017-09-06T07:27:34.869Z,375
2017-09-06T07:28:44.829Z,360
2017-09-06T07:29:55.147Z,350
2017-09-06T07:31:05.461Z,345
2017-09-06T07:32:15.750Z,345
2017-09-06T07:33:25.714Z,350
2017-09-06T07:34:35.996Z,355
2017-09-06T07:35:46.030Z,370
2017-09-06T07:36:56.315Z,380
2017-09-06T07:38:06.929Z,375
2017-09-06T07:39:17.264Z,380
2017-09-06T07:40:27.557Z,405
2017-09-06T07:41:37.846Z,430
2017-09-06T07:42:48.123Z,445
2017-09-06T07:43:58.377Z,460
2017-09-06T07:45:08.351Z,485
2017-09-06T07:46:18.717Z,500
2017-09-06T07:47:29.002Z,535
2017-09-06T07:48:38.720Z,555
2017-09-06T07:49:49.314Z,560
2017-09-06T07:50:59.616Z,555
2017-09-06T07:52:09.603Z,530
2017-09-06T07:53:19.918Z,505
2017-09-06T07:54:30.186Z,485
2017-09-06T07:55:40.421Z,465
2017-09-06T07:56:50.055Z,425
2017-09-06T07:58:00.368Z,400
2017-09-06T07:59:10.651Z,375
2017-09-06T08:00:20.924Z,355
2017-09-06T08:01:31.547Z,330
2017-09-06T08:02:41.528Z,300
2017-09-06T08:03:51.529Z,290
2017-09-06T08:05:01.157Z,285
2017-09-06T08:06:11.123Z,290
2017-09-06T08:07:21.400Z,285
2017-09-06T08:08:31.380Z,275
2017-09-06T08:09:41.682Z,260
2017-09-06T08:10:51.651Z,255
2017-09-06T08:12:01.932Z,250
2017-09-06T08:13:12.471Z,250
2017-09-06T08:14:22.773Z,245
2017-09-06T08:15:33.054Z,245
2017-09-06T08:16:43.008Z,240
2017-09-06T08:17:52.994Z,235
2017-09-06T08:19:03.270Z,230
2017-09-06T08:20:13.903Z,230
2017-09-06T08:21:24.218Z,230
2017-09-06T08:22:34.501Z,240
2017-09-06T08:23:44.793Z,250
2017-09-06T08:24:55.351Z,270
2017-09-06T08:26:05.384Z,275
2017-09-06T08:27:15.378Z,265
2017-09-06T08:28:25.678Z,255
2017-09-06T08:29:35.963Z,255
2017-09-06T08:30:46.638Z,285
2017-09-06T08:31:56.302Z,330
2017-09-06T08:33:06.559Z,335
2017-09-06T08:34:16.869Z,315
2017-09-06T08:35:26.844Z,310
2017-09-06T08:36:37.093Z,315
2017-09-06T08:37:47.408Z,300
2017-09-06T08:38:57.403Z,290
2017-09-06T08:40:07.686Z,290
2017-09-06T08:41:17.342Z,295
2017-09-06T08:42:27.875Z,290
2017-09-06T08:43:37.853Z,270
2017-09-06T08:44:47.499Z,250
2017-09-06T08:45:57.855Z,240
2017-09-06T08:47:07.830Z,225
2017-09-06T08:48:18.061Z,200
2017-09-06T08:49:28.055Z,165
2017-09-06T08:50:38.353Z,150
2017-09-06T08:51:48.683Z,165
2017-09-06T08:52:58.347Z,185
2017-09-06T08:54:08.921Z,195
2017-09-06T08:55:18.569Z,190
2017-09-06T08:56:28.848Z,210
2017-09-06T08:57:38.519Z,250
2017-09-06T08:58:48.835Z,290
2017-09-06T08:59:59.408Z,320
2017-09-06T09:01:09.362Z,340
2017-09-06T09:02:19.346Z,350
2017-09-06T09:03:29.826Z,355
2017-09-06T09:04:40.134Z,360
2017-09-06T09:05:50.868Z,390
2017-09-06T09:07:01.191Z,450
2017-09-06T09:08:11.516Z,480
2017-09-06T09:09:21.865Z,485
2017-09-06T09:10:31.855Z,485
2017-09-06T09:11:42.381Z,475
2017-09-06T09:12:52.675Z,465
2017-09-06T09:14:02.935Z,455
2017-09-06T09:15:13.256Z,460
2017-09-06T09:16:23.558Z,470
2017-09-06T09:17:33.448Z,455
2017-09-06T09:18:43.413Z,440
2017-09-06T09:19:53.695Z,455
2017-09-06T09:21:04.007Z,425
2017-09-06T09:22:14.295Z,315
2017-09-06T09:23:24.896Z,190
2017-09-06T09:24:34.877Z,130
2017-09-06T09:25:44.853Z,120
2017-09-06T09:26:55.156Z,140
2017-09-06T09:28:05.139Z,140
2017-09-06T09:29:15.396Z,180
2017-09-06T09:30:25.701Z,240
2017-09-06T09:31:35.986Z,305
2017-09-06T09:32:46.282Z,330
2017-09-06T09:33:56.251Z,270
2017-09-06T09:35:06.877Z,240
2017-09-06T09:36:17.179Z,200
2017-09-06T09:37:27.485Z,165
2017-09-06T09:38:37.446Z,185
2017-09-06T09:39:47.736Z,220
2017-09-06T09:40:58.284Z,275
2017-09-06T09:42:08.292Z,345
2017-09-06T09:43:18.611Z,375
2017-09-06T09:44:28.634Z,370
2017-09-06T09:45:38.304Z,390
2017-09-06T09:46:48.944Z,420
2017-09-06T09:47:58.979Z,410
2017-09-06T09:49:09.278Z,320
2017-09-06T09:50:19.585Z,265
2017-09-06T09:51:29.562Z,290
2017-09-06T09:52:39.858Z,365
2017-09-06T09:53:50.138Z,490
2017-09-06T09:55:00.445Z,590
2017-09-06T09:56:10.755Z,575
2017-09-06T09:57:21.242Z,480
2017-09-06T09:58:31.578Z,455
2017-09-06T09:59:41.575Z,575
2017-09-06T10:00:51.243Z,610
2017-09-06T10:02:01.529Z,670
2017-09-06T10:03:11.518Z,745
2017-09-06T10:04:22.095Z,710
2017-09-06T10:05:32.379Z,680
2017-09-06T10:06:42.366Z,720
2017-09-06T10:07:52.674Z,725
2017-09-06T10:09:02.971Z,690
2017-09-06T10:10:12.931Z,705
2017-09-06T10:11:22.910Z,675
2017-09-06T10:12:32.965Z,705
2017-09-06T10:13:43.296Z,800
2017-09-06T10:14:53.577Z,720
2017-09-06T10:16:04.186Z,715
2017-09-06T10:17:14.179Z,715
2017-09-06T10:18:24.464Z,760
2017-09-06T10:19:34.446Z,770
2017-09-06T10:20:44.482Z,775
2017-09-06T10:21:55.072Z,525
2017-09-06T10:23:05.385Z,610
2017-09-06T10:24:15.677Z,740
2017-09-06T10:25:25.980Z,750
2017-09-06T10:26:36.275Z,610
2017-09-06T10:27:46.913Z,600
2017-09-06T10:28:57.259Z,815
2017-09-06T10:30:07.566Z,885
2017-09-06T10:31:17.871Z,825
2017-09-06T10:32:28.260Z,860
2017-09-06T10:33:38.552Z,925
2017-09-06T10:34:48.844Z,890
2017-09-06T10:35:59.142Z,760
2017-09-06T10:37:09.122Z,695
2017-09-06T10:38:19.429Z,675
2017-09-06T10:39:30.022Z,725
2017-09-06T10:40:40.311Z,740
2017-09-06T10:41:50.297Z,715
2017-09-06T10:43:00.593Z,695
2017-09-06T10:44:10.886Z,655
2017-09-06T10:45:21.169Z,560
2017-09-06T10:46:31.466Z,420
2017-09-06T10:47:41.765Z,320
2017-09-06T10:48:52.092Z,255
2017-09-06T10:50:02.384Z,205
2017-09-06T10:51:12.989Z,165
2017-09-06T10:52:23.288Z,135
2017-09-06T10:53:33.259Z,140
2017-09-06T10:54:43.217Z,155
2017-09-06T10:55:53.182Z,170
2017-09-06T10:57:03.752Z,180
2017-09-06T10:58:13.727Z,260
2017-09-06T10:59:24.034Z,390
2017-09-06T11:00:34.329Z,425
2017-09-06T11:01:44.605Z,425
2017-09-06T11:02:55.141Z,420
2017-09-06T11:04:04.806Z,390
2017-09-06T11:05:15.102Z,345
2017-09-06T11:06:25.370Z,360
2017-09-06T11:07:35.332Z,375
2017-09-06T11:08:45.556Z,435
2017-09-06T11:09:55.846Z,460
2017-09-06T11:11:06.165Z,475
2017-09-06T11:12:16.141Z,485
2017-09-06T11:13:26.119Z,495
2017-09-06T11:14:36.712Z,485
2017-09-06T11:15:46.673Z,475
2017-09-06T11:16:56.640Z,460
2017-09-06T11:18:06.921Z,460
2017-09-06T11:19:16.610Z,470
2017-09-06T11:20:27.207Z,505
2017-09-06T11:21:37.176Z,550
2017-09-06T11:22:47.703Z,615
2017-09-06T11:23:57.998Z,665
2017-09-06T11:25:07.973Z,720
2017-09-06T11:26:18.582Z,770
2017-09-06T11:27:28.579Z,785
2017-09-06T11:28:38.236Z,760
2017-09-06T11:29:48.207Z,705
2017-09-06T11:30:57.871Z,665
2017-09-06T11:32:08.077Z,685
2017-09-06T11:33:18.382Z,730
2017-09-06T11:34:28.713Z,765
2017-09-06T11:35:39.014Z,795
2017-09-06T11:36:49.303Z,820
2017-09-06T11:37:59.605Z,845
2017-09-06T11:39:09.290Z,890
2017-09-06T11:40:19.257Z,940
2017-09-06T11:41:29.210Z,990
2017-09-06T11:42:39.195Z,1010
2017-09-06T11:43:49.732Z,1000
2017-09-06T11:45:00.033Z,970
2017-09-06T11:46:10.307Z,915
2017-09-06T11:47:20.286Z,860
2017-09-06T11:48:30.566Z,815
2017-09-06T11:49:41.098Z,785
2017-09-06T11:50:51.374Z,760
2017-09-06T11:52:01.344Z,750
2017-09-06T11:53:11.658Z,765
2017-09-06T11:54:21.637Z,775
2017-09-06T11:55:31.851Z,780
2017-09-06T11:56:42.162Z,765
2017-09-06T11:57:52.458Z,740
2017-09-06T11:59:02.752Z,700
2017-09-06T12:00:12.703Z,665
2017-09-06T12:01:23.005Z,650
2017-09-06T12:02:32.981Z,670
2017-09-06T12:03:43.282Z,685
2017-09-06T12:04:53.262Z,695
2017-09-06T12:06:03.227Z,710
2017-09-06T12:07:13.820Z,730
2017-09-06T12:08:24.112Z,755
2017-09-06T12:09:34.067Z,785
2017-09-06T12:10:44.034Z,790
2017-09-06T12:11:54.326Z,810
2017-09-06T12:13:04.917Z,845
2017-09-06T12:14:14.926Z,910
2017-09-06T12:15:25.201Z,990
2017-09-06T12:16:35.505Z,1065
2017-09-06T12:17:45.498Z,1115
2017-09-06T12:18:55.759Z,1190
2017-09-06T12:20:05.748Z,1515
2017-09-06T12:21:16.032Z,1245
2017-09-06T12:22:26.321Z,1255
2017-09-06T12:23:35.960Z,1285
2017-09-06T12:24:46.513Z,1375
2017-09-06T12:25:56.482Z,1740
2017-09-06T12:27:06.768Z,2145
2017-09-06T12:28:16.733Z,2095
2017-09-06T12:29:27.007Z,2655
2017-09-06T12:30:36.645Z,1575
2017-09-06T12:31:46.636Z,1530
2017-09-06T12:32:56.940Z,1490
2017-09-06T12:34:07.235Z,1750
2017-09-06T12:35:17.519Z,1700
2017-09-06T12:36:28.321Z,2035
2017-09-06T12:37:38.337Z,3055
2017-09-06T12:38:48.655Z,3790
2017-09-06T12:39:58.950Z,3480
2017-09-06T12:41:09.279Z,2200
2017-09-06T12:42:19.863Z,2295
2017-09-06T12:43:30.176Z,2060
2017-09-06T12:44:40.507Z,2450
2017-09-06T12:45:50.884Z,2630
2017-09-06T12:47:01.209Z,2100
2017-09-06T12:48:11.825Z,3420
2017-09-06T12:49:22.150Z,3195
2017-09-06T12:50:32.478Z,3540
2017-09-06T12:51:43.046Z,3400
2017-09-06T12:52:53.450Z,3280
2017-09-06T12:54:04.287Z,3395
2017-09-06T12:55:14.313Z,3425
2017-09-06T12:56:24.604Z,3395
2017-09-06T12:57:34.888Z,3460
2017-09-06T12:58:44.920Z,3500
2017-09-06T12:59:55.485Z,3250
2017-09-06T13:01:05.485Z,2990
2017-09-06T13:02:15.800Z,2150
2017-09-06T13:03:25.795Z,3545
2017-09-06T13:04:36.122Z,3505
2017-09-06T13:05:46.713Z,3420
2017-09-06T13:06:57.069Z,3105
2017-09-06T13:08:06.746Z,3100
2017-09-06T13:09:17.090Z,1295
2017-09-06T13:10:27.383Z,1755
2017-09-06T13:11:37.665Z,1345
2017-09-06T13:12:47.986Z,1255
2017-09-06T13:13:58.280Z,1340
2017-09-06T13:15:08.623Z,1230
2017-09-06T13:16:18.597Z,850
2017-09-06T13:17:29.189Z,745
2017-09-06T13:18:39.164Z,895
2017-09-06T13:19:49.471Z,1165
2017-09-06T13:20:59.829Z,1360
2017-09-06T13:22:10.139Z,1820
2017-09-06T13:23:20.392Z,2285
2017-09-06T13:24:30.717Z,1570
2017-09-06T13:25:40.677Z,1155
2017-09-06T13:26:50.969Z,760
2017-09-06T13:28:01.264Z,560
2017-09-06T13:29:11.855Z,465
2017-09-06T13:30:22.156Z,435
2017-09-06T13:31:31.824Z,505
2017-09-06T13:32:41.854Z,590
2017-09-06T13:33:52.137Z,565
2017-09-06T13:35:02.424Z,485
2017-09-06T13:36:12.403Z,460
2017-09-06T13:37:22.691Z,460
2017-09-06T13:38:32.974Z,460
2017-09-06T13:39:43.265Z,480
2017-09-06T13:40:53.792Z,535
2017-09-06T13:42:04.084Z,550
2017-09-06T13:43:14.404Z,530
2017-09-06T13:44:24.688Z,465
2017-09-06T13:45:34.654Z,405
2017-09-06T13:46:45.221Z,350
2017-09-06T13:47:55.234Z,310
2017-09-06T13:49:05.212Z,290
2017-09-06T13:50:15.497Z,270
2017-09-06T13:51:25.793Z,255
2017-09-06T13:52:35.800Z,235
2017-09-06T13:53:46.091Z,195
2017-09-06T13:54:56.390Z,160
2017-09-06T13:56:06.730Z,130
2017-09-06T13:57:17.021Z,110
2017-09-06T13:58:27.624Z,105
2017-09-06T13:59:37.622Z,115
2017-09-06T14:00:47.626Z,115
2017-09-06T14:01:57.623Z,95
2017-09-06T14:03:07.911Z,55
2017-09-06T14:04:18.427Z,15
2017-09-06T14:05:28.405Z,10
2017-09-06T14:06:38.385Z,15
2017-09-06T14:07:48.660Z,35
2017-09-06T14:08:58.942Z,50
2017-09-06T14:10:09.521Z,65
2017-09-06T14:11:19.833Z,80
2017-09-06T14:12:29.803Z,90
2017-09-06T14:13:39.779Z,110
2017-09-06T14:14:50.079Z,125
2017-09-06T14:16:00.302Z,140
2017-09-06T14:17:09.975Z,150
2017-09-06T14:18:19.948Z,160
2017-09-06T14:19:29.941Z,175
2017-09-06T14:20:39.593Z,210
2017-09-06T14:21:49.809Z,255
2017-09-06T14:23:00.095Z,315
2017-09-06T14:24:10.389Z,425
2017-09-06T14:25:20.361Z,490
2017-09-06T14:26:30.654Z,550
2017-09-06T14:27:40.884Z,600
2017-09-06T14:28:50.848Z,595
2017-09-06T14:30:01.152Z,540
2017-09-06T14:31:11.124Z,415
2017-09-06T14:32:20.787Z,300
2017-09-06T14:33:31.319Z,235
2017-09-06T14:34:41.611Z,210
2017-09-06T14:35:51.577Z,195
2017-09-06T14:37:01.234Z,190
2017-09-06T14:38:11.528Z,185
2017-09-06T14:39:22.103Z,200
2017-09-06T14:40:32.381Z,230
2017-09-06T14:41:42.358Z,275
2017-09-06T14:42:52.655Z,295
2017-09-06T14:44:02.933Z,295
2017-09-06T14:45:13.474Z,300
2017-09-06T14:46:23.781Z,315
2017-09-06T14:47:34.075Z,330
2017-09-06T14:48:44.041Z,335
2017-09-06T14:49:53.989Z,340
2017-09-06T14:51:04.197Z,335
2017-09-06T14:52:14.486Z,330
2017-09-06T14:53:24.467Z,320
2017-09-06T14:54:34.445Z,320
2017-09-06T14:55:44.737Z,335
2017-09-06T14:56:55.289Z,355
2017-09-06T14:58:05.573Z,360
2017-09-06T14:59:15.558Z,325
2017-09-06T15:00:25.863Z,335
2017-09-06T15:01:36.140Z,345
2017-09-06T15:02:46.039Z,350
2017-09-06T15:03:56.337Z,300
2017-09-06T15:05:06.628Z,225
2017-09-06T15:06:16.925Z,160
2017-09-06T15:07:26.895Z,105
2017-09-06T15:08:37.120Z,115
2017-09-06T15:09:47.422Z,145
2017-09-06T15:10:57.390Z,155
2017-09-06T15:12:07.362Z,160
2017-09-06T15:13:17.335Z,145
2017-09-06T15:14:27.880Z,205
2017-09-06T15:15:37.868Z,275
2017-09-06T15:16:48.175Z,300
2017-09-06T15:17:57.825Z,305
2017-09-06T15:19:08.165Z,315
2017-09-06T15:20:18.700Z,305
2017-09-06T15:21:29.006Z,295
2017-09-06T15:22:38.983Z,310
2017-09-06T15:23:49.261Z,340
2017-09-06T15:24:59.533Z,350
2017-09-06T15:26:09.754Z,320
2017-09-06T15:27:20.037Z,295
2017-09-06T15:28:30.342Z,240
2017-09-06T15:29:39.997Z,210
2017-09-06T15:30:49.988Z,210
2017-09-06T15:32:00.544Z,235
2017-09-06T15:33:10.829Z,235
2017-09-06T15:34:21.108Z,215
2017-09-06T15:35:31.089Z,215
2017-09-06T15:36:41.062Z,185
2017-09-06T15:37:51.609Z,230
2017-09-06T15:39:01.894Z,220
2017-09-06T15:40:12.191Z,200
2017-09-06T15:41:22.492Z,190
2017-09-06T15:42:32.469Z,190
2017-09-06T15:43:42.682Z,170
2017-09-06T15:44:52.657Z,220
2017-09-06T15:46:02.967Z,190
2017-09-06T15:47:12.983Z,210
2017-09-06T15:48:22.647Z,170
2017-09-06T15:49:33.175Z,135
2017-09-06T15:50:43.142Z,130
2017-09-06T15:51:53.436Z,160
2017-09-06T15:53:03.416Z,135
2017-09-06T15:54:13.392Z,160
2017-09-06T15:55:23.927Z,160
2017-09-06T15:56:33.914Z,165
2017-09-06T15:57:44.177Z,135
2017-09-06T15:58:54.465Z,130
2017-09-06T16:00:04.768Z,100
2017-09-06T16:01:14.987Z,95
2017-09-06T16:02:25.260Z,90
2017-09-06T16:03:35.549Z,90
2017-09-06T16:04:45.491Z,70
2017-09-06T16:05:55.765Z,65
2017-09-06T16:07:05.967Z,70
2017-09-06T16:08:16.270Z,65
2017-09-06T16:09:26.242Z,60
2017-09-06T16:10:36.542Z,60
2017-09-06T16:11:46.831Z,55
2017-09-06T16:12:57.057Z,50
2017-09-06T16:14:07.353Z,45
2017-09-06T16:15:17.312Z,50
2017-09-06T16:16:26.967Z,55
2017-09-06T16:17:37.229Z,55
2017-09-06T16:18:47.424Z,45
2017-09-06T16:19:57.715Z,50
2017-09-06T16:21:07.992Z,50
2017-09-06T16:22:18.280Z,60
2017-09-06T16:23:28.561Z,70
2017-09-06T16:24:38.792Z,70
2017-09-06T16:25:49.080Z,80